RKTN/TAE METAR and TAF weather

Enter ICAO airport designator
Station Type Date Time Source
RKTN METAR 2022/01/26 07:00 UTC NOAA

RKTN 260700Z 29011KT CAVOK 08/M08 Q1023


Station Type Date Time Source
RKTN Decoded METAR 2022/01/26 07:00 UTC NOAA

Taegu Ab, Korea, South (RKTN) 35-54N 128-39E 37M
Jan 26, 2022 - 02:00 AM EST / 2022.01.26 0700 UTC
Wind: from the WNW (290 degrees) at 13 MPH (11 KT):0
Visibility: greater than 7 mile(s):0
Temperature: 46 F (8 C)
Dew Point: 17 F (-8 C)
Relative Humidity: 31%
Pressure (altimeter): 30.21 in. Hg (1023 hPa)
ob: RKTN 260700Z 29011KT CAVOK 08/M08 Q1023
cycle: 7

Station Type Date Time Source
RKTN TAF 2022/01/26 06:08 UTC NOAA

TAF RKTN 260500Z 2606/2712 30010KT 9999 SCT040 SCT200 TX10/2606Z TNM02/2621Z

Example: see airport list